BIKF/KEF METAR and TAF weather

Enter ICAO airport designator
Station Type Date Time Source
BIKF METAR 2020/02/24 23:30 UTC NOAA

BIKF 242330Z 14008KT 9999 VCSH FEW023CB BKN220 M02/M04 Q0985


Station Type Date Time Source
BIKF Decoded METAR 2020/02/24 23:30 UTC NOAA

Keflavikurflugvollur, Iceland (BIKF) 63-58N 022-36W 54M
Feb 24, 2020 - 06:30 PM EST / 2020.02.24 2330 UTC
Wind: from the SE (140 degrees) at 9 MPH (8 KT):0
Visibility: greater than 7 mile(s):0
Sky conditions: mostly cloudy
Weather: showers in the vicinity; Cumulonimbus clouds observed
Temperature: 28 F (-2 C)
Windchill: 19 F (-7 C):1
Dew Point: 24 F (-4 C)
Relative Humidity: 86%
Pressure (altimeter): 29.09 in. Hg (0985 hPa)
ob: BIKF 242330Z 14008KT 9999 VCSH FEW023CB BKN220 M02/M04 Q0985
cycle: 23

Station Type Date Time Source
BIKF TAF 2020/02/24 21:59 UTC NOAA

TAF BIKF 241957Z 2421/2521 24012KT 9999 FEW015 SCT025 BKN035 TX01/2515Z TNM05/2506Z
TEMPO 2421/2506 2000 SHSN BKN010CB
BECMG 2422/2500 18004KT
BECMG 2506/2508 SCT040
BECMG 2514/2516 03015KT

Example: see airport list